.
WxDataArchive / Data Records for 2009-03-05
2009-03-04 March 2009 2009-03-06

Data Records for Thursday, 05 March 2009

Time	Temp	Chill	HIndex	Humid	Dewpt	 Wind 	HiWind	WindDir	Rain 	Barom 
-----	----	-----	------	-----	-----	------	------	-------	-----	----- 
00:00	26.4	26.4	26.4	64	15.9	0	0	---	0.00	30.261 
00:05	26.3	26.3	26.3	65	16.2	0	0	---	0.00	30.258 
00:10	26.1	26.1	26.1	65	16.0	0	0	---	0.00	30.260 
00:15	26.0	26.0	26.0	66	16.2	0	0	---	0.00	30.259 
00:20	25.8	25.8	25.8	66	16.0	0	0	---	0.00	30.254 
00:25	25.7	25.7	25.7	67	16.3	0	0	---	0.00	30.251 
00:30	25.6	25.6	25.6	67	16.2	0	0	---	0.00	30.249 
00:35	25.6	25.6	25.6	68	16.5	0	1	135	0.00	30.247 
00:40	25.7	25.7	25.7	66	15.9	0	1	135	0.00	30.246 
00:45	26.0	26.0	26.0	66	16.2	0	0	---	0.00	30.245 
00:50	26.0	26.0	26.0	66	16.2	0	0	---	0.00	30.246 
00:55	26.1	26.1	26.1	66	16.3	0	0	---	0.00	30.244 
01:00	26.3	26.3	26.3	65	16.2	0	0	---	0.00	30.243 
01:05	26.3	26.3	26.3	65	16.2	0	1	135	0.00	30.241 
01:10	26.3	26.3	26.3	65	16.2	0	0	---	0.00	30.239 
01:15	26.1	26.1	26.1	66	16.3	0	0	---	0.00	30.235 
01:20	26.1	26.1	26.1	66	16.3	0	0	---	0.00	30.232 
01:25	26.1	26.1	26.1	66	16.3	0	1	135	0.00	30.230 
01:30	26.0	26.0	26.0	66	16.2	0	1	135	0.00	30.230 
01:35	26.1	26.1	26.1	66	16.3	0	0	---	0.00	30.231 
01:40	26.0	26.0	26.0	66	16.2	0	0	---	0.00	30.232 
01:45	26.0	26.0	26.0	66	16.2	0	0	---	0.00	30.231 
01:50	25.8	25.8	25.8	67	16.4	0	0	---	0.00	30.231 
01:55	25.7	25.7	25.7	67	16.3	0	0	---	0.00	30.230 
02:00	25.7	25.7	25.7	68	16.6	0	0	---	0.00	30.229 
02:05	25.6	25.6	25.6	68	16.5	0	0	---	0.00	30.228 
02:10	25.4	25.4	25.4	68	16.3	0	0	---	0.00	30.227 
02:15	25.4	25.4	25.4	69	16.7	0	0	---	0.00	30.228 
02:20	25.3	25.3	25.3	69	16.6	0	0	---	0.00	30.229 
02:25	25.3	25.3	25.3	69	16.6	0	0	---	0.00	30.227 
02:30	25.3	25.3	25.3	69	16.6	0	0	---	0.00	30.223 
02:35	25.3	25.3	25.3	70	16.9	0	0	---	0.00	30.218 
02:40	25.1	25.1	25.1	70	16.7	0	0	---	0.00	30.217 
02:45	25.1	25.1	25.1	70	16.7	0	0	---	0.00	30.216 
02:50	25.0	25.0	25.0	71	16.9	0	0	---	0.00	30.213 
02:55	25.0	25.0	25.0	71	16.9	0	0	---	0.00	30.213 
03:00	25.1	25.1	25.1	71	17.0	0	0	---	0.00	30.211 
03:05	25.3	25.3	25.3	71	17.2	0	1	135	0.00	30.209 
03:10	25.7	25.7	25.7	70	17.3	0	1	135	0.00	30.206 
03:15	26.0	26.0	26.0	69	17.2	0	1	135	0.00	30.205 
03:20	26.3	26.3	26.3	69	17.5	0	1	135	0.00	30.207 
03:25	26.4	26.4	26.4	69	17.6	0	0	---	0.00	30.202 
03:30	26.6	26.6	26.6	69	17.8	0	1	135	0.00	30.198 
03:35	26.9	26.9	26.9	69	18.1	0	1	135	0.00	30.195 
03:40	27.5	27.5	27.5	68	18.3	0	1	135	0.00	30.194 
03:45	28.2	28.2	28.2	66	18.3	0	1	135	0.00	30.193 
03:50	29.0	29.0	29.0	65	18.7	0	1	135	0.00	30.190 
03:55	29.5	29.5	29.5	66	19.6	0	1	135	0.00	30.188 
04:00	30.1	30.1	30.1	64	19.4	0	2	135	0.00	30.184 
04:05	30.6	30.6	30.6	63	19.5	0	2	135	0.00	30.185 
04:10	31.0	31.0	31.0	62	19.5	0	1	135	0.00	30.181 
04:15	31.3	31.3	31.3	61	19.4	1	2	135	0.00	30.184 
04:20	31.5	31.5	31.5	61	19.6	0	2	135	0.00	30.182 
04:25	31.8	31.8	31.8	62	20.3	0	2	135	0.00	30.180 
04:30	31.8	31.8	31.8	62	20.3	0	2	135	0.00	30.184 
04:35	31.9	31.9	31.9	64	21.1	1	2	135	0.00	30.183 
04:40	31.9	31.9	31.9	63	20.8	1	2	135	0.00	30.181 
04:45	32.1	32.1	32.1	62	20.6	1	2	135	0.00	30.179 
04:50	32.2	32.2	32.2	62	20.7	1	2	135	0.00	30.178 
04:55	32.4	32.4	32.4	63	21.2	1	4	135	0.00	30.178 
05:00	32.4	32.4	32.4	64	21.6	1	4	90	0.00	30.180 
05:05	32.5	32.5	32.5	65	22.1	1	3	90	0.00	30.177 
05:10	32.5	32.5	32.5	65	22.1	1	3	90	0.00	30.177 
05:15	32.7	32.7	32.7	65	22.3	0	1	90	0.00	30.181 
05:20	32.8	32.8	32.8	64	22.0	0	2	90	0.00	30.181 
05:25	32.9	32.9	32.9	65	22.4	0	1	90	0.00	30.180 
05:30	33.1	33.1	33.1	65	22.6	0	1	90	0.00	30.177 
05:35	33.4	33.4	33.4	65	22.9	1	3	90	0.00	30.176 
05:40	33.5	33.5	33.5	65	23.0	1	2	90	0.00	30.172 
05:45	33.7	33.7	33.7	65	23.2	1	3	90	0.00	30.170 
05:50	33.8	33.8	33.8	66	23.7	1	2	90	0.00	30.168 
05:55	33.8	33.8	33.8	65	23.3	1	2	90	0.00	30.168 
06:00	34.1	34.1	34.1	64	23.2	1	4	90	0.00	30.167 
06:05	34.4	34.4	34.4	64	23.5	1	3	90	0.00	30.166 
06:10	34.6	34.6	34.6	63	23.3	0	2	90	0.00	30.164 
06:15	35.0	35.0	35.0	62	23.3	1	2	135	0.00	30.164 
06:20	35.5	35.5	35.5	61	23.4	1	3	90	0.00	30.162 
06:25	36.0	36.0	36.0	58	22.7	1	2	112	0.00	30.159 
06:30	36.9	36.9	36.9	56	22.7	1	4	112	0.00	30.155 
06:35	37.5	37.5	37.5	54	22.4	1	3	112	0.00	30.156 
06:40	38.0	38.0	38.0	54	22.9	1	2	112	0.00	30.154 
06:45	38.5	38.5	38.5	52	22.4	1	3	90	0.00	30.151 
06:50	39.1	39.1	39.1	51	22.5	1	3	112	0.00	30.145 
06:55	39.5	39.5	39.5	50	22.4	1	3	112	0.00	30.143 
07:00	39.9	39.9	39.9	50	22.8	1	4	112	0.00	30.140 
07:05	40.1	40.1	40.1	50	23.0	1	4	90	0.00	30.146 
07:10	40.2	40.2	40.2	50	23.1	1	6	112	0.00	30.146 
07:15	40.5	40.5	40.5	49	22.9	2	4	112	0.00	30.144 
07:20	40.6	40.6	40.6	49	23.0	1	4	90	0.00	30.143 
07:25	40.8	40.8	40.8	49	23.1	1	3	135	0.00	30.142 
07:30	40.9	40.9	40.9	49	23.2	2	4	112	0.00	30.142 
07:35	41.1	41.1	41.1	49	23.4	1	4	112	0.00	30.143 
07:40	41.3	41.3	41.3	49	23.6	1	4	135	0.00	30.142 
07:45	41.6	41.6	41.6	49	23.9	2	5	112	0.00	30.139 
07:50	41.8	41.8	41.8	49	24.1	2	4	112	0.00	30.138 
07:55	41.9	41.9	41.9	49	24.1	2	7	90	0.00	30.139 
08:00	42.1	42.1	42.1	49	24.3	2	5	90	0.00	30.138 
08:05	42.3	42.3	42.3	49	24.5	2	5	112	0.00	30.137 
08:10	42.5	42.5	42.5	48	24.2	2	5	90	0.00	30.136 
08:15	42.6	42.6	42.6	48	24.3	2	6	112	0.00	30.130 
08:20	42.8	42.8	42.8	48	24.5	1	4	68	0.00	30.130 
08:25	42.9	42.9	42.9	48	24.6	2	6	90	0.00	30.129 
08:30	43.2	43.2	43.2	48	24.9	2	5	112	0.00	30.130 
08:35	43.3	43.3	43.3	48	24.9	2	6	112	0.00	30.128 
08:40	43.6	43.6	43.6	47	24.7	2	6	90	0.00	30.128 
08:45	43.9	43.9	43.9	47	25.0	2	6	90	0.00	30.126 
08:50	44.1	44.1	44.1	47	25.2	1	4	112	0.00	30.125 
08:55	44.2	44.2	44.2	47	25.3	2	6	90	0.00	30.125 
09:00	44.5	44.5	44.5	47	25.5	2	5	68	0.00	30.125 
09:05	44.5	44.5	44.5	47	25.5	2	6	90	0.00	30.122 
09:10	44.6	44.6	44.6	47	25.6	2	9	270	0.00	30.121 
09:15	44.9	44.9	44.9	46	25.4	2	6	90	0.00	30.117 
09:20	45.1	45.1	45.1	46	25.6	2	9	90	0.00	30.115 
09:25	45.1	45.1	45.1	47	26.1	2	7	68	0.00	30.112 
09:30	45.2	45.2	45.2	46	25.7	1	4	68	0.00	30.109 
09:35	45.5	45.5	45.5	47	26.5	2	7	90	0.00	30.107 
09:40	45.8	45.8	45.8	47	26.7	2	5	90	0.00	30.106 
09:45	46.2	46.2	46.2	47	27.1	2	5	90	0.00	30.102 
09:50	46.5	46.5	46.5	46	26.8	2	8	22	0.00	30.101 
09:55	46.7	46.7	46.7	46	27.0	2	5	292	0.00	30.098 
10:00	46.8	46.8	46.8	46	27.1	2	7	112	0.00	30.097 
10:05	47.1	47.1	47.1	46	27.4	1	4	270	0.00	30.098 
10:10	47.6	47.6	47.6	46	27.9	2	5	338	0.00	30.093 
10:15	47.9	47.9	47.9	45	27.6	2	9	315	0.00	30.093 
10:20	48.2	48.2	48.2	45	27.9	2	7	248	0.00	30.092 
10:25	48.3	48.3	48.3	45	28.0	2	7	68	0.00	30.090 
10:30	48.5	48.5	48.5	45	28.1	3	7	270	0.00	30.087 
10:35	48.9	48.9	48.9	45	28.5	2	5	90	0.00	30.082 
10:40	49.4	49.4	49.4	44	28.4	3	7	112	0.00	30.077 
10:45	49.8	49.8	49.8	44	28.8	3	9	112	0.00	30.077 
10:50	49.9	49.9	49.9	44	28.9	3	9	90	0.00	30.077 
10:55	49.8	49.8	49.8	44	28.8	3	9	112	0.00	30.076 
11:00	49.8	49.8	49.8	45	29.3	2	7	248	0.00	30.073 
11:05	49.9	49.9	49.9	45	29.4	2	5	22	0.00	30.067 
11:10	50.4	50.4	50.4	46	30.4	2	5	338	0.00	30.061 
11:15	50.8	50.8	50.8	45	30.2	3	7	0	0.00	30.059 
11:20	51.0	51.0	51.0	45	30.4	3	7	90	0.00	30.054 
11:25	51.1	51.1	51.1	45	30.5	3	10	68	0.00	30.054 
11:30	51.6	51.6	51.6	45	31.0	2	10	45	0.00	30.049 
11:35	51.9	51.9	51.9	45	31.2	3	10	90	0.00	30.046 
11:40	52.2	52.2	52.2	45	31.5	3	14	90	0.00	30.045 
11:45	52.5	52.5	52.5	45	31.8	4	11	90	0.00	30.043 
11:50	52.8	52.8	52.8	45	32.1	3	10	270	0.00	30.041 
11:55	53.1	53.1	53.1	46	32.9	3	12	270	0.00	30.037 
12:00	53.2	53.2	53.2	46	33.0	3	8	90	0.00	30.032 
12:05	53.2	53.2	53.2	46	33.0	4	11	112	0.00	30.030 
12:10	53.2	53.2	53.2	46	33.0	4	11	90	0.00	30.027 
12:15	53.3	53.3	53.3	46	33.1	3	10	270	0.00	30.026 
12:20	53.5	53.5	53.5	47	33.8	4	12	248	0.00	30.025 
12:25	53.5	53.5	53.5	47	33.8	3	8	270	0.00	30.018 
12:30	53.5	53.5	53.5	47	33.8	3	9	248	0.00	30.009 
12:35	53.5	53.5	53.5	47	33.8	3	10	22	0.00	30.008 
12:40	53.6	53.6	53.6	48	34.4	4	10	90	0.00	30.005 
12:45	53.8	53.8	53.8	49	35.1	4	10	248	0.00	29.996 
12:50	53.8	53.8	53.8	49	35.1	4	14	270	0.00	29.993 
12:55	54.1	54.1	54.1	49	35.4	3	9	45	0.00	29.990 
13:00	54.2	54.2	54.2	49	35.5	4	9	248	0.00	29.990 
13:05	54.4	54.4	54.4	50	36.2	3	11	90	0.00	29.983 
13:10	54.4	54.4	54.4	49	35.6	4	12	90	0.00	29.976 
13:15	54.7	54.7	54.7	50	36.4	4	11	68	0.00	29.968 
13:20	55.1	55.1	55.1	50	36.8	4	12	0	0.00	29.962 
13:25	55.6	55.6	55.6	49	36.7	4	11	90	0.00	29.960 
13:30	56.0	56.0	56.0	50	37.6	4	9	292	0.00	29.957 
13:35	56.5	56.5	56.5	49	37.6	4	9	90	0.00	29.952 
13:40	56.3	56.3	56.3	50	37.9	4	9	90	0.00	29.943 
13:45	56.2	56.2	56.2	51	38.3	4	11	68	0.00	29.941 
13:50	56.5	56.5	56.5	50	38.1	5	13	270	0.00	29.939 
13:55	56.6	56.6	56.6	50	38.2	5	12	292	0.00	29.929 
14:00	56.9	56.9	56.9	50	38.5	4	11	90	0.00	29.926 
14:05	57.0	57.0	57.0	51	39.1	4	10	68	0.00	29.919 
14:10	57.2	57.2	57.2	51	39.2	5	12	90	0.00	29.918 
14:15	57.3	57.3	57.3	52	39.8	5	13	90	0.00	29.913 
14:20	57.8	57.8	57.8	51	39.8	3	10	90	0.00	29.912 
14:25	58.1	58.1	58.1	51	40.1	5	13	270	0.00	29.915 
14:30	58.6	58.6	58.6	51	40.5	4	11	338	0.00	29.910 
14:35	58.9	58.9	58.9	51	40.8	4	12	248	0.00	29.909 
14:40	59.0	59.0	59.0	51	40.9	3	12	90	0.00	29.904 
14:45	59.3	59.3	59.3	51	41.2	4	12	248	0.00	29.895 
14:50	59.6	59.6	59.6	52	42.0	4	10	112	0.00	29.894 
14:55	59.8	59.8	59.8	51	41.6	4	11	270	0.00	29.893 
15:00	59.9	59.9	59.9	51	41.7	4	9	270	0.00	29.893 
15:05	60.1	60.1	60.1	51	41.9	4	11	270	0.00	29.889 
15:10	59.9	59.9	59.9	51	41.7	6	14	270	0.00	29.888 
15:15	60.2	60.2	60.2	52	42.5	5	11	270	0.00	29.886 
15:20	60.7	60.7	60.7	52	43.0	4	11	248	0.00	29.887 
15:25	61.2	61.2	61.2	51	42.9	5	13	248	0.00	29.877 
15:30	61.5	61.5	61.5	50	42.7	4	9	270	0.00	29.876 
15:35	61.6	61.6	61.6	51	43.3	4	11	248	0.00	29.872 
15:40	61.6	61.6	61.6	50	42.8	4	10	270	0.00	29.871 
15:45	61.3	61.3	61.3	51	43.0	4	10	90	0.00	29.870 
15:50	61.0	61.0	61.0	51	42.7	6	18	270	0.00	29.870 
15:55	61.5	61.5	61.5	51	43.2	5	14	270	0.00	29.863 
16:00	62.0	62.0	62.0	50	43.1	4	12	270	0.00	29.856 
16:05	62.1	62.1	62.1	51	43.8	3	7	45	0.00	29.853 
16:10	62.0	62.0	62.0	51	43.7	4	12	45	0.00	29.853 
16:15	61.6	61.6	61.6	51	43.3	5	11	68	0.00	29.849 
16:20	61.5	61.5	61.5	52	43.7	5	14	292	0.00	29.843 
16:25	61.5	61.5	61.5	52	43.7	3	13	90	0.00	29.842 
16:30	61.6	61.6	61.6	52	43.8	3	13	90	0.00	29.839 
16:35	61.8	61.8	61.8	52	44.0	2	7	292	0.00	29.839 
16:40	61.8	61.8	61.8	53	44.5	4	9	68	0.00	29.837 
16:45	62.0	62.0	62.0	53	44.7	3	10	68	0.00	29.836 
16:50	61.8	61.8	61.8	53	44.5	4	14	90	0.00	29.835 
16:55	61.8	61.8	61.8	54	45.0	2	6	90	0.00	29.837 
17:00	61.6	61.6	61.6	54	44.8	3	6	90	0.00	29.835 
17:05	61.8	61.8	61.8	54	45.0	3	11	45	0.00	29.828 
17:10	62.1	62.1	62.1	54	45.3	3	10	270	0.00	29.827 
17:15	62.4	62.4	62.4	55	46.0	3	7	270	0.00	29.831 
17:20	62.4	62.4	62.4	55	46.0	3	10	270	0.00	29.831 
17:25	62.4	62.4	62.4	55	46.0	2	9	248	0.00	29.832 
17:30	62.4	62.4	62.4	55	46.0	3	10	270	0.00	29.831 
17:35	62.6	62.6	62.6	55	46.2	2	6	292	0.00	29.830 
17:40	62.6	62.6	62.6	56	46.7	4	11	270	0.00	29.830 
17:45	62.6	62.6	62.6	56	46.7	4	11	270	0.00	29.833 
17:50	62.6	62.6	62.6	56	46.7	3	7	270	0.00	29.833 
17:55	62.4	62.4	62.4	56	46.5	2	8	248	0.00	29.834 
18:00	62.3	62.3	62.3	57	46.9	2	7	270	0.00	29.835 
18:05	62.3	62.3	62.3	57	46.9	3	9	248	0.00	29.830 
18:10	62.4	62.4	62.4	57	47.0	4	12	248	0.00	29.833 
18:15	62.6	62.6	62.6	56	46.7	7	15	248	0.00	29.830 
18:20	62.6	62.6	62.6	56	46.7	5	11	270	0.00	29.831 
18:25	62.4	62.4	62.4	57	47.0	4	11	248	0.00	29.833 
18:30	62.3	62.3	62.3	57	46.9	5	12	270	0.00	29.838 
18:35	62.1	62.1	62.1	58	47.1	4	11	270	0.00	29.841 
18:40	61.8	61.8	61.8	58	46.9	2	7	270	0.00	29.841 
18:45	61.3	61.3	61.3	59	46.8	2	6	248	0.00	29.841 
18:50	61.0	61.0	61.0	59	46.6	2	6	248	0.00	29.837 
18:55	60.7	60.7	60.7	60	46.7	2	9	270	0.00	29.835 
19:00	60.5	60.5	60.5	60	46.5	3	9	248	0.00	29.836 
19:05	60.5	60.5	60.5	60	46.5	3	7	248	0.00	29.835 
19:10	60.4	60.4	60.4	60	46.4	2	8	248	0.00	29.834 
19:15	60.2	60.2	60.2	60	46.3	2	11	225	0.00	29.832 
19:20	60.1	60.1	60.1	61	46.6	2	8	248	0.00	29.832 
19:25	59.9	59.9	59.9	61	46.4	2	6	248	0.00	29.834 
19:30	59.8	59.8	59.8	61	46.3	2	5	270	0.00	29.833 
19:35	59.6	59.6	59.6	62	46.6	2	6	248	0.00	29.833 
19:40	59.6	59.6	59.6	62	46.6	3	9	248	0.00	29.832 
19:45	59.5	59.5	59.5	62	46.5	2	9	248	0.00	29.832 
19:50	59.5	59.5	59.5	62	46.5	2	10	248	0.00	29.836 
19:55	59.5	59.5	59.5	63	46.9	2	9	248	0.00	29.838 
20:00	59.3	59.3	59.3	63	46.7	2	6	270	0.00	29.837 
20:05	59.3	59.3	59.3	63	46.7	3	11	270	0.00	29.831 
20:10	59.5	59.5	59.5	63	46.9	3	9	248	0.00	29.829 
20:15	59.5	59.5	59.5	63	46.9	3	9	270	0.00	29.828 
20:20	59.6	59.6	59.6	63	47.0	4	10	270	0.00	29.828 
20:25	59.6	59.6	59.6	64	47.4	4	10	270	0.00	29.828 
20:30	59.6	59.6	59.6	64	47.4	3	10	248	0.00	29.830 
20:35	59.8	59.8	59.8	64	47.6	4	16	248	0.00	29.829 
20:40	59.8	59.8	59.8	64	47.6	4	10	248	0.00	29.829 
20:45	59.8	59.8	59.8	64	47.6	5	12	248	0.00	29.829 
20:50	59.8	59.8	59.8	64	47.6	4	14	248	0.00	29.835 
20:55	59.6	59.6	59.6	64	47.4	4	12	248	0.00	29.830 
21:00	59.6	59.6	59.6	64	47.4	4	7	248	0.00	29.830 
21:05	59.6	59.6	59.6	64	47.4	4	9	270	0.00	29.829 
21:10	59.6	59.6	59.6	65	47.8	4	10	270	0.00	29.830 
21:15	59.6	59.6	59.6	65	47.8	4	14	248	0.00	29.828 
21:20	59.5	59.5	59.5	65	47.7	4	10	248	0.00	29.827 
21:25	59.5	59.5	59.5	65	47.7	4	12	248	0.00	29.830 
21:30	59.3	59.3	59.3	65	47.5	4	10	270	0.00	29.830 
21:35	59.3	59.3	59.3	65	47.5	3	14	270	0.00	29.832 
21:40	59.2	59.2	59.2	65	47.4	3	12	248	0.00	29.830 
21:45	59.2	59.2	59.2	66	47.8	4	9	248	0.00	29.836 
21:50	59.2	59.2	59.2	66	47.8	4	12	248	0.00	29.842 
21:55	59.2	59.2	59.2	66	47.8	3	11	248	0.00	29.839 
22:00	59.2	59.2	59.2	66	47.8	3	11	225	0.00	29.843 
22:05	59.0	59.0	59.0	66	47.7	3	6	270	0.00	29.841 
22:10	59.0	59.0	59.0	66	47.7	4	12	248	0.00	29.843 
22:15	59.0	59.0	59.0	67	48.1	4	10	270	0.00	29.848 
22:20	59.0	59.0	59.0	67	48.1	4	9	248	0.00	29.846 
22:25	59.0	59.0	59.0	67	48.1	4	10	248	0.00	29.846 
22:30	58.9	58.9	58.9	67	48.0	4	12	248	0.00	29.848 
22:35	58.9	58.9	58.9	67	48.0	3	9	248	0.00	29.850 
22:40	58.7	58.7	58.7	68	48.2	3	6	248	0.00	29.850 
22:45	58.7	58.7	58.7	68	48.2	4	11	248	0.00	29.851 
22:50	58.7	58.7	58.7	68	48.2	4	11	248	0.00	29.851 
22:55	58.6	58.6	58.6	68	48.1	3	11	248	0.00	29.852 
23:00	58.6	58.6	58.6	68	48.1	4	10	248	0.00	29.851 
23:05	58.4	58.4	58.4	68	47.9	4	13	248	0.00	29.847 
23:10	58.4	58.4	58.4	68	47.9	3	7	225	0.00	29.851 
23:15	58.3	58.3	58.3	69	48.2	3	10	248	0.00	29.852 
23:20	58.4	58.4	58.4	69	48.3	4	12	270	0.00	29.855 
23:25	58.4	58.4	58.4	68	47.9	4	10	248	0.00	29.854 
23:30	58.4	58.4	58.4	68	47.9	4	10	248	0.00	29.856 
23:35	58.6	58.6	58.6	68	48.1	4	12	270	0.00	29.859 
23:40	58.6	58.6	58.6	68	48.1	3	7	248	0.00	29.860 
23:45	58.7	58.7	58.7	68	48.2	4	10	248	0.00	29.860 
23:50	58.7	58.7	58.7	68	48.2	3	10	270	0.00	29.868 
23:55	58.7	58.7	58.7	68	48.2	3	9	248	0.00	29.866 

CoCoRaHS
IN-AL-39
A2 Web Hosting
Creative Commons License
GoDaddy
search engine by freefind advanced

loaded 2018-11-13 21:54:44 • last modified 2010-11-18 10:43:29
Privacy PolicyDisclaimer
• wx.awcolley.com is powered by PmWiki v.2002016 •
• all content (unless otherwise noted) © 2018 A W Colley